sensor_id;sensor_type;location;lat;lon;timestamp;P1;durP1;ratioP1;P2;durP2;ratioP2
40501;SDS011;29631;49.168;9.848;2023-04-08T00:02:10;6.90;;;6.40;;
40501;SDS011;29631;49.168;9.848;2023-04-08T00:04:36;7.38;;;6.78;;
40501;SDS011;29631;49.168;9.848;2023-04-08T00:07:01;6.07;;;5.68;;
40501;SDS011;29631;49.168;9.848;2023-04-08T00:09:27;6.93;;;6.43;;
40501;SDS011;29631;49.168;9.848;2023-04-08T00:11:53;6.78;;;6.28;;
40501;SDS011;29631;49.168;9.848;2023-04-08T00:14:18;6.60;;;6.15;;
40501;SDS011;29631;49.168;9.848;2023-04-08T00:16:44;6.28;;;5.78;;
40501;SDS011;29631;49.168;9.848;2023-04-08T00:19:10;6.40;;;5.90;;
40501;SDS011;29631;49.168;9.848;2023-04-08T00:21:36;6.05;;;5.65;;
40501;SDS011;29631;49.168;9.848;2023-04-08T00:24:02;6.43;;;5.93;;
40501;SDS011;29631;49.168;9.848;2023-04-08T00:26:27;6.93;;;6.43;;
40501;SDS011;29631;49.168;9.848;2023-04-08T00:28:53;6.32;;;5.82;;
40501;SDS011;29631;49.168;9.848;2023-04-08T00:31:19;7.93;;;7.22;;
40501;SDS011;29631;49.168;9.848;2023-04-08T00:33:45;7.00;;;6.43;;
40501;SDS011;29631;49.168;9.848;2023-04-08T00:36:11;7.88;;;7.30;;
40501;SDS011;29631;49.168;9.848;2023-04-08T00:38:37;7.30;;;6.80;;
40501;SDS011;29631;49.168;9.848;2023-04-08T00:41:02;7.25;;;6.70;;
40501;SDS011;29631;49.168;9.848;2023-04-08T00:43:28;7.50;;;6.90;;
40501;SDS011;29631;49.168;9.848;2023-04-08T00:45:54;6.57;;;6.07;;
40501;SDS011;29631;49.168;9.848;2023-04-08T00:48:20;7.13;;;6.63;;
40501;SDS011;29631;49.168;9.848;2023-04-08T00:50:45;7.07;;;6.55;;
40501;SDS011;29631;49.168;9.848;2023-04-08T00:53:16;6.95;;;6.35;;
40501;SDS011;29631;49.168;9.848;2023-04-08T00:55:43;6.90;;;6.40;;
40501;SDS011;29631;49.168;9.848;2023-04-08T00:58:09;6.95;;;6.43;;
40501;SDS011;29631;49.168;9.848;2023-04-08T01:00:37;7.10;;;6.60;;
40501;SDS011;29631;49.168;9.848;2023-04-08T01:04:00;6.50;;;6.00;;
40501;SDS011;29631;49.168;9.848;2023-04-08T01:06:29;6.38;;;5.88;;
40501;SDS011;29631;49.168;9.848;2023-04-08T01:09:10;6.53;;;6.03;;
40501;SDS011;29631;49.168;9.848;2023-04-08T01:11:37;6.60;;;6.00;;
40501;SDS011;29631;49.168;9.848;2023-04-08T01:14:08;6.97;;;6.47;;
40501;SDS011;29631;49.168;9.848;2023-04-08T01:16:37;7.30;;;6.70;;
40501;SDS011;29631;49.168;9.848;2023-04-08T01:19:05;6.82;;;6.30;;
40501;SDS011;29631;49.168;9.848;2023-04-08T01:21:35;7.25;;;6.65;;
40501;SDS011;29631;49.168;9.848;2023-04-08T01:24:09;6.90;;;6.30;;
40501;SDS011;29631;49.168;9.848;2023-04-08T01:26:51;7.20;;;6.50;;
40501;SDS011;29631;49.168;9.848;2023-04-08T01:29:20;6.95;;;6.45;;
40501;SDS011;29631;49.168;9.848;2023-04-08T01:31:46;7.05;;;6.45;;
40501;SDS011;29631;49.168;9.848;2023-04-08T01:34:13;7.55;;;6.95;;
40501;SDS011;29631;49.168;9.848;2023-04-08T01:36:40;6.82;;;6.32;;
40501;SDS011;29631;49.168;9.848;2023-04-08T01:39:09;6.90;;;6.40;;
40501;SDS011;29631;49.168;9.848;2023-04-08T01:41:36;7.53;;;6.93;;
40501;SDS011;29631;49.168;9.848;2023-04-08T01:44:03;7.40;;;6.80;;
40501;SDS011;29631;49.168;9.848;2023-04-08T01:46:29;6.57;;;6.10;;
40501;SDS011;29631;49.168;9.848;2023-04-08T01:48:56;6.82;;;6.30;;
40501;SDS011;29631;49.168;9.848;2023-04-08T01:51:23;6.80;;;6.30;;
40501;SDS011;29631;49.168;9.848;2023-04-08T01:53:51;7.13;;;6.53;;
40501;SDS011;29631;49.168;9.848;2023-04-08T01:56:16;7.50;;;6.90;;
40501;SDS011;29631;49.168;9.848;2023-04-08T01:58:47;6.80;;;6.20;;
40501;SDS011;29631;49.168;9.848;2023-04-08T02:01:19;6.80;;;6.30;;
40501;SDS011;29631;49.168;9.848;2023-04-08T02:03:47;6.63;;;6.13;;
40501;SDS011;29631;49.168;9.848;2023-04-08T02:06:16;6.47;;;5.97;;
40501;SDS011;29631;49.168;9.848;2023-04-08T02:08:41;6.88;;;6.22;;
40501;SDS011;29631;49.168;9.848;2023-04-08T02:11:07;7.05;;;6.55;;
40501;SDS011;29631;49.168;9.848;2023-04-08T02:13:34;6.72;;;6.18;;
40501;SDS011;29631;49.168;9.848;2023-04-08T02:16:02;6.75;;;6.25;;
40501;SDS011;29631;49.168;9.848;2023-04-08T02:18:39;6.32;;;5.72;;
40501;SDS011;29631;49.168;9.848;2023-04-08T02:23:38;6.88;;;6.38;;
40501;SDS011;29631;49.168;9.848;2023-04-08T02:26:11;6.60;;;6.05;;
40501;SDS011;29631;49.168;9.848;2023-04-08T02:28:39;6.47;;;5.97;;
40501;SDS011;29631;49.168;9.848;2023-04-08T02:31:08;6.75;;;6.22;;
40501;SDS011;29631;49.168;9.848;2023-04-08T02:33:38;6.82;;;6.32;;
40501;SDS011;29631;49.168;9.848;2023-04-08T02:36:06;6.78;;;6.28;;
40501;SDS011;29631;49.168;9.848;2023-04-08T02:38:33;6.65;;;6.05;;
40501;SDS011;29631;49.168;9.848;2023-04-08T02:40:59;6.47;;;5.97;;
40501;SDS011;29631;49.168;9.848;2023-04-08T02:43:25;6.50;;;6.00;;
40501;SDS011;29631;49.168;9.848;2023-04-08T02:45:55;6.38;;;5.97;;
40501;SDS011;29631;49.168;9.848;2023-04-08T02:48:24;6.25;;;5.72;;
40501;SDS011;29631;49.168;9.848;2023-04-08T02:50:50;6.00;;;5.60;;
40501;SDS011;29631;49.168;9.848;2023-04-08T02:53:15;6.80;;;6.30;;
40501;SDS011;29631;49.168;9.848;2023-04-08T02:55:41;5.85;;;5.45;;
40501;SDS011;29631;49.168;9.848;2023-04-08T02:58:07;6.53;;;6.03;;
40501;SDS011;29631;49.168;9.848;2023-04-08T03:00:33;6.05;;;5.60;;
40501;SDS011;29631;49.168;9.848;2023-04-08T03:02:58;6.38;;;5.88;;
40501;SDS011;29631;49.168;9.848;2023-04-08T03:05:25;5.43;;;5.03;;
40501;SDS011;29631;49.168;9.848;2023-04-08T03:07:51;6.30;;;5.82;;
40501;SDS011;29631;49.168;9.848;2023-04-08T03:10:16;5.68;;;5.18;;
40501;SDS011;29631;49.168;9.848;2023-04-08T03:12:42;6.18;;;5.78;;
40501;SDS011;29631;49.168;9.848;2023-04-08T03:15:08;5.78;;;5.38;;
40501;SDS011;29631;49.168;9.848;2023-04-08T03:17:34;6.45;;;5.95;;
40501;SDS011;29631;49.168;9.848;2023-04-08T03:20:00;6.20;;;5.80;;
40501;SDS011;29631;49.168;9.848;2023-04-08T03:22:28;6.43;;;5.93;;
40501;SDS011;29631;49.168;9.848;2023-04-08T03:24:54;6.30;;;5.90;;
40501;SDS011;29631;49.168;9.848;2023-04-08T03:27:20;6.30;;;5.88;;
40501;SDS011;29631;49.168;9.848;2023-04-08T03:29:46;6.63;;;6.15;;
40501;SDS011;29631;49.168;9.848;2023-04-08T03:32:11;6.07;;;5.68;;
40501;SDS011;29631;49.168;9.848;2023-04-08T03:34:37;6.32;;;5.90;;
40501;SDS011;29631;49.168;9.848;2023-04-08T03:37:03;6.82;;;6.32;;
40501;SDS011;29631;49.168;9.848;2023-04-08T03:39:29;6.55;;;6.05;;
40501;SDS011;29631;49.168;9.848;2023-04-08T03:41:55;6.57;;;6.07;;
40501;SDS011;29631;49.168;9.848;2023-04-08T03:44:21;6.22;;;5.72;;
40501;SDS011;29631;49.168;9.848;2023-04-08T03:46:46;6.72;;;5.97;;
40501;SDS011;29631;49.168;9.848;2023-04-08T03:49:12;6.25;;;5.75;;
40501;SDS011;29631;49.168;9.848;2023-04-08T03:51:38;6.40;;;5.90;;
40501;SDS011;29631;49.168;9.848;2023-04-08T03:54:04;6.20;;;5.70;;
40501;SDS011;29631;49.168;9.848;2023-04-08T03:56:30;5.97;;;5.57;;
40501;SDS011;29631;49.168;9.848;2023-04-08T03:58:55;5.50;;;5.15;;
40501;SDS011;29631;49.168;9.848;2023-04-08T04:01:21;6.43;;;6.03;;
40501;SDS011;29631;49.168;9.848;2023-04-08T04:03:47;5.78;;;5.38;;
40501;SDS011;29631;49.168;9.848;2023-04-08T04:06:12;5.90;;;5.50;;
40501;SDS011;29631;49.168;9.848;2023-04-08T04:08:38;5.68;;;5.28;;
40501;SDS011;29631;49.168;9.848;2023-04-08T04:11:04;6.88;;;6.28;;
40501;SDS011;29631;49.168;9.848;2023-04-08T04:13:30;6.15;;;5.75;;
40501;SDS011;29631;49.168;9.848;2023-04-08T04:15:55;6.22;;;5.80;;
40501;SDS011;29631;49.168;9.848;2023-04-08T04:18:21;6.60;;;6.07;;
40501;SDS011;29631;49.168;9.848;2023-04-08T04:20:47;6.50;;;6.07;;
40501;SDS011;29631;49.168;9.848;2023-04-08T04:23:12;6.57;;;6.07;;
40501;SDS011;29631;49.168;9.848;2023-04-08T04:25:41;6.55;;;6.05;;
40501;SDS011;29631;49.168;9.848;2023-04-08T04:28:08;6.72;;;6.22;;
40501;SDS011;29631;49.168;9.848;2023-04-08T04:30:37;6.93;;;6.43;;
40501;SDS011;29631;49.168;9.848;2023-04-08T04:33:04;7.15;;;6.13;;
40501;SDS011;29631;49.168;9.848;2023-04-08T04:35:30;7.25;;;6.75;;
40501;SDS011;29631;49.168;9.848;2023-04-08T04:37:57;6.70;;;6.20;;
40501;SDS011;29631;49.168;9.848;2023-04-08T04:40:23;6.95;;;6.45;;
40501;SDS011;29631;49.168;9.848;2023-04-08T04:42:49;6.97;;;6.47;;
40501;SDS011;29631;49.168;9.848;2023-04-08T04:45:15;6.68;;;6.18;;
40501;SDS011;29631;49.168;9.848;2023-04-08T04:47:40;7.25;;;6.65;;
40501;SDS011;29631;49.168;9.848;2023-04-08T04:50:06;7.07;;;6.57;;
40501;SDS011;29631;49.168;9.848;2023-04-08T04:52:34;7.22;;;6.72;;
40501;SDS011;29631;49.168;9.848;2023-04-08T04:55:00;6.45;;;6.00;;
40501;SDS011;29631;49.168;9.848;2023-04-08T04:57:26;7.47;;;6.88;;
40501;SDS011;29631;49.168;9.848;2023-04-08T04:59:52;7.60;;;7.05;;
40501;SDS011;29631;49.168;9.848;2023-04-08T05:02:18;6.88;;;6.38;;
40501;SDS011;29631;49.168;9.848;2023-04-08T05:04:43;6.47;;;5.97;;
40501;SDS011;29631;49.168;9.848;2023-04-08T05:07:09;7.50;;;6.90;;
40501;SDS011;29631;49.168;9.848;2023-04-08T05:09:35;6.97;;;6.47;;
40501;SDS011;29631;49.168;9.848;2023-04-08T05:12:00;6.85;;;6.25;;
40501;SDS011;29631;49.168;9.848;2023-04-08T05:14:29;7.65;;;7.05;;
40501;SDS011;29631;49.168;9.848;2023-04-08T05:16:55;8.05;;;7.30;;
40501;SDS011;29631;49.168;9.848;2023-04-08T05:19:21;7.72;;;7.07;;
40501;SDS011;29631;49.168;9.848;2023-04-08T05:21:47;7.45;;;6.85;;
40501;SDS011;29631;49.168;9.848;2023-04-08T05:24:13;7.78;;;7.18;;
40501;SDS011;29631;49.168;9.848;2023-04-08T05:26:38;7.43;;;6.82;;
40501;SDS011;29631;49.168;9.848;2023-04-08T05:29:04;7.50;;;6.90;;
40501;SDS011;29631;49.168;9.848;2023-04-08T05:31:30;7.75;;;7.22;;
40501;SDS011;29631;49.168;9.848;2023-04-08T05:33:56;8.05;;;7.35;;
40501;SDS011;29631;49.168;9.848;2023-04-08T05:36:21;8.00;;;7.40;;
40501;SDS011;29631;49.168;9.848;2023-04-08T05:38:47;7.90;;;7.30;;
40501;SDS011;29631;49.168;9.848;2023-04-08T05:41:13;7.50;;;6.93;;
40501;SDS011;29631;49.168;9.848;2023-04-08T05:43:39;7.50;;;6.93;;
40501;SDS011;29631;49.168;9.848;2023-04-08T05:46:09;7.47;;;6.88;;
40501;SDS011;29631;49.168;9.848;2023-04-08T05:48:35;7.65;;;7.13;;
40501;SDS011;29631;49.168;9.848;2023-04-08T05:51:01;7.75;;;7.05;;
40501;SDS011;29631;49.168;9.848;2023-04-08T05:53:27;7.90;;;7.30;;
40501;SDS011;29631;49.168;9.848;2023-04-08T05:55:53;8.05;;;7.45;;
40501;SDS011;29631;49.168;9.848;2023-04-08T05:58:19;7.90;;;7.30;;
40501;SDS011;29631;49.168;9.848;2023-04-08T06:00:44;7.63;;;7.03;;
40501;SDS011;29631;49.168;9.848;2023-04-08T06:03:10;7.88;;;7.28;;
40501;SDS011;29631;49.168;9.848;2023-04-08T06:05:36;12.48;;;11.32;;
40501;SDS011;29631;49.168;9.848;2023-04-08T06:08:01;17.23;;;15.52;;
40501;SDS011;29631;49.168;9.848;2023-04-08T06:10:27;12.95;;;11.75;;
40501;SDS011;29631;49.168;9.848;2023-04-08T06:12:53;10.05;;;9.23;;
40501;SDS011;29631;49.168;9.848;2023-04-08T06:15:19;9.32;;;8.52;;
40501;SDS011;29631;49.168;9.848;2023-04-08T06:17:45;8.82;;;8.13;;
40501;SDS011;29631;49.168;9.848;2023-04-08T06:20:11;8.07;;;7.43;;
40501;SDS011;29631;49.168;9.848;2023-04-08T06:22:36;8.25;;;7.45;;
40501;SDS011;29631;49.168;9.848;2023-04-08T06:25:02;8.40;;;7.78;;
40501;SDS011;29631;49.168;9.848;2023-04-08T06:27:28;8.30;;;7.60;;
40501;SDS011;29631;49.168;9.848;2023-04-08T06:29:54;8.88;;;8.18;;
40501;SDS011;29631;49.168;9.848;2023-04-08T06:32:23;9.02;;;8.18;;
40501;SDS011;29631;49.168;9.848;2023-04-08T06:34:49;9.20;;;8.40;;
40501;SDS011;29631;49.168;9.848;2023-04-08T06:37:14;9.48;;;8.77;;
40501;SDS011;29631;49.168;9.848;2023-04-08T06:39:40;8.90;;;8.20;;
40501;SDS011;29631;49.168;9.848;2023-04-08T06:42:06;8.52;;;7.82;;
40501;SDS011;29631;49.168;9.848;2023-04-08T06:44:31;9.13;;;8.32;;
40501;SDS011;29631;49.168;9.848;2023-04-08T06:46:57;9.55;;;8.77;;
40501;SDS011;29631;49.168;9.848;2023-04-08T06:49:23;8.10;;;7.43;;
40501;SDS011;29631;49.168;9.848;2023-04-08T06:51:49;7.70;;;7.10;;
40501;SDS011;29631;49.168;9.848;2023-04-08T06:54:14;8.00;;;7.40;;
40501;SDS011;29631;49.168;9.848;2023-04-08T06:56:40;8.32;;;7.72;;
40501;SDS011;29631;49.168;9.848;2023-04-08T06:59:06;8.20;;;7.50;;
40501;SDS011;29631;49.168;9.848;2023-04-08T07:01:31;8.25;;;7.45;;
40501;SDS011;29631;49.168;9.848;2023-04-08T07:03:57;8.57;;;7.78;;
40501;SDS011;29631;49.168;9.848;2023-04-08T07:06:23;8.82;;;8.00;;
40501;SDS011;29631;49.168;9.848;2023-04-08T07:08:49;7.60;;;7.10;;
40501;SDS011;29631;49.168;9.848;2023-04-08T07:11:15;8.15;;;7.50;;
40501;SDS011;29631;49.168;9.848;2023-04-08T07:13:41;8.05;;;7.45;;
40501;SDS011;29631;49.168;9.848;2023-04-08T07:16:07;8.45;;;7.72;;
40501;SDS011;29631;49.168;9.848;2023-04-08T07:18:33;8.23;;;7.53;;
40501;SDS011;29631;49.168;9.848;2023-04-08T07:20:58;8.05;;;7.35;;
40501;SDS011;29631;49.168;9.848;2023-04-08T07:23:25;7.70;;;7.07;;
40501;SDS011;29631;49.168;9.848;2023-04-08T07:25:51;7.63;;;7.03;;
40501;SDS011;29631;49.168;9.848;2023-04-08T07:28:18;8.23;;;7.63;;
40501;SDS011;29631;49.168;9.848;2023-04-08T07:30:44;7.88;;;7.25;;
40501;SDS011;29631;49.168;9.848;2023-04-08T07:33:10;8.68;;;8.00;;
40501;SDS011;29631;49.168;9.848;2023-04-08T07:35:36;7.82;;;7.22;;
40501;SDS011;29631;49.168;9.848;2023-04-08T07:38:02;7.70;;;7.00;;
40501;SDS011;29631;49.168;9.848;2023-04-08T07:40:28;8.13;;;7.47;;
40501;SDS011;29631;49.168;9.848;2023-04-08T07:42:54;8.68;;;7.97;;
40501;SDS011;29631;49.168;9.848;2023-04-08T07:45:20;7.70;;;7.05;;
40501;SDS011;29631;49.168;9.848;2023-04-08T07:47:46;7.88;;;7.20;;
40501;SDS011;29631;49.168;9.848;2023-04-08T07:50:12;8.45;;;7.60;;
40501;SDS011;29631;49.168;9.848;2023-04-08T07:52:38;8.48;;;7.68;;
40501;SDS011;29631;49.168;9.848;2023-04-08T07:55:03;7.78;;;7.15;;
40501;SDS011;29631;49.168;9.848;2023-04-08T07:57:30;7.95;;;7.18;;
40501;SDS011;29631;49.168;9.848;2023-04-08T07:59:56;7.43;;;6.75;;
40501;SDS011;29631;49.168;9.848;2023-04-08T08:02:22;8.40;;;7.70;;
40501;SDS011;29631;49.168;9.848;2023-04-08T08:04:47;8.15;;;7.55;;
40501;SDS011;29631;49.168;9.848;2023-04-08T08:07:13;7.55;;;7.05;;
40501;SDS011;29631;49.168;9.848;2023-04-08T08:09:39;8.10;;;7.35;;
40501;SDS011;29631;49.168;9.848;2023-04-08T08:12:05;7.43;;;6.82;;
40501;SDS011;29631;49.168;9.848;2023-04-08T08:14:31;8.23;;;6.90;;
40501;SDS011;29631;49.168;9.848;2023-04-08T08:16:56;7.47;;;6.88;;
40501;SDS011;29631;49.168;9.848;2023-04-08T08:19:22;7.30;;;6.65;;
40501;SDS011;29631;49.168;9.848;2023-04-08T08:21:48;6.60;;;6.10;;
40501;SDS011;29631;49.168;9.848;2023-04-08T08:24:14;6.85;;;6.15;;
40501;SDS011;29631;49.168;9.848;2023-04-08T08:26:40;7.28;;;6.68;;
40501;SDS011;29631;49.168;9.848;2023-04-08T08:29:09;6.22;;;5.80;;
40501;SDS011;29631;49.168;9.848;2023-04-08T08:31:34;6.35;;;5.85;;
40501;SDS011;29631;49.168;9.848;2023-04-08T08:34:00;6.90;;;6.38;;
40501;SDS011;29631;49.168;9.848;2023-04-08T08:36:26;6.32;;;5.82;;
40501;SDS011;29631;49.168;9.848;2023-04-08T08:38:52;5.78;;;5.28;;
40501;SDS011;29631;49.168;9.848;2023-04-08T08:41:21;6.88;;;5.70;;
40501;SDS011;29631;49.168;9.848;2023-04-08T08:43:47;5.38;;;5.00;;
40501;SDS011;29631;49.168;9.848;2023-04-08T08:46:14;5.70;;;5.30;;
40501;SDS011;29631;49.168;9.848;2023-04-08T08:48:43;5.15;;;4.85;;
40501;SDS011;29631;49.168;9.848;2023-04-08T08:51:10;6.07;;;5.57;;
40501;SDS011;29631;49.168;9.848;2023-04-08T08:53:37;5.68;;;5.18;;
40501;SDS011;29631;49.168;9.848;2023-04-08T08:56:03;5.75;;;5.35;;
40501;SDS011;29631;49.168;9.848;2023-04-08T08:58:32;6.28;;;5.78;;
40501;SDS011;29631;49.168;9.848;2023-04-08T09:00:58;6.20;;;5.80;;
40501;SDS011;29631;49.168;9.848;2023-04-08T09:03:25;5.55;;;5.13;;
40501;SDS011;29631;49.168;9.848;2023-04-08T09:08:22;5.47;;;5.07;;
40501;SDS011;29631;49.168;9.848;2023-04-08T09:11:09;5.47;;;4.88;;
40501;SDS011;29631;49.168;9.848;2023-04-08T09:13:38;5.43;;;5.03;;
40501;SDS011;29631;49.168;9.848;2023-04-08T09:16:05;5.88;;;5.38;;
40501;SDS011;29631;49.168;9.848;2023-04-08T09:18:33;5.55;;;5.07;;
40501;SDS011;29631;49.168;9.848;2023-04-08T09:21:01;5.45;;;5.00;;
40501;SDS011;29631;49.168;9.848;2023-04-08T09:23:45;5.25;;;4.63;;
40501;SDS011;29631;49.168;9.848;2023-04-08T09:26:13;4.88;;;4.43;;
40501;SDS011;29631;49.168;9.848;2023-04-08T09:28:40;4.97;;;4.57;;
40501;SDS011;29631;49.168;9.848;2023-04-08T09:31:17;4.75;;;4.45;;
40501;SDS011;29631;49.168;9.848;2023-04-08T09:33:48;4.65;;;4.35;;
40501;SDS011;29631;49.168;9.848;2023-04-08T09:36:15;4.57;;;4.22;;
40501;SDS011;29631;49.168;9.848;2023-04-08T09:38:42;4.50;;;4.10;;
40501;SDS011;29631;49.168;9.848;2023-04-08T09:41:08;4.75;;;4.40;;
40501;SDS011;29631;49.168;9.848;2023-04-08T09:43:44;4.88;;;3.97;;
40501;SDS011;29631;49.168;9.848;2023-04-08T09:46:14;4.22;;;3.92;;
40501;SDS011;29631;49.168;9.848;2023-04-08T09:48:49;4.50;;;4.20;;
40501;SDS011;29631;49.168;9.848;2023-04-08T09:57:36;8.43;;;5.13;;
40501;SDS011;29631;49.168;9.848;2023-04-08T10:00:37;4.55;;;4.25;;
40501;SDS011;29631;49.168;9.848;2023-04-08T10:05:55;5.28;;;4.70;;
40501;SDS011;29631;49.168;9.848;2023-04-08T10:08:25;4.28;;;3.97;;
40501;SDS011;29631;49.168;9.848;2023-04-08T10:10:51;4.25;;;3.95;;
40501;SDS011;29631;49.168;9.848;2023-04-08T10:13:19;4.80;;;4.50;;
40501;SDS011;29631;49.168;9.848;2023-04-08T10:15:46;4.93;;;4.35;;
40501;SDS011;29631;49.168;9.848;2023-04-08T10:23:11;4.82;;;4.43;;
40501;SDS011;29631;49.168;9.848;2023-04-08T10:33:19;4.65;;;4.35;;
40501;SDS011;29631;49.168;9.848;2023-04-08T10:35:52;4.70;;;4.40;;
40501;SDS011;29631;49.168;9.848;2023-04-08T10:38:26;5.10;;;4.70;;
40501;SDS011;29631;49.168;9.848;2023-04-08T10:40:52;4.68;;;4.38;;
40501;SDS011;29631;49.168;9.848;2023-04-08T10:43:18;4.75;;;4.45;;
40501;SDS011;29631;49.168;9.848;2023-04-08T10:45:44;4.32;;;4.13;;
40501;SDS011;29631;49.168;9.848;2023-04-08T10:48:11;6.22;;;4.80;;
40501;SDS011;29631;49.168;9.848;2023-04-08T10:51:02;4.50;;;4.20;;
40501;SDS011;29631;49.168;9.848;2023-04-08T10:53:30;4.68;;;4.35;;
40501;SDS011;29631;49.168;9.848;2023-04-08T10:56:08;4.38;;;4.10;;
40501;SDS011;29631;49.168;9.848;2023-04-08T10:58:50;5.20;;;4.80;;
40501;SDS011;29631;49.168;9.848;2023-04-08T11:01:20;4.38;;;4.13;;
40501;SDS011;29631;49.168;9.848;2023-04-08T11:03:46;4.30;;;4.00;;
40501;SDS011;29631;49.168;9.848;2023-04-08T11:06:12;3.90;;;3.65;;
40501;SDS011;29631;49.168;9.848;2023-04-08T11:08:38;4.30;;;3.90;;
40501;SDS011;29631;49.168;9.848;2023-04-08T11:11:05;4.53;;;4.22;;
40501;SDS011;29631;49.168;9.848;2023-04-08T11:13:36;4.40;;;4.10;;
40501;SDS011;29631;49.168;9.848;2023-04-08T11:16:05;4.03;;;3.72;;
40501;SDS011;29631;49.168;9.848;2023-04-08T11:18:36;3.92;;;3.70;;
40501;SDS011;29631;49.168;9.848;2023-04-08T11:21:07;3.75;;;3.55;;
40501;SDS011;29631;49.168;9.848;2023-04-08T11:23:36;4.32;;;4.03;;
40501;SDS011;29631;49.168;9.848;2023-04-08T11:26:02;3.90;;;3.70;;
40501;SDS011;29631;49.168;9.848;2023-04-08T11:28:28;4.40;;;4.10;;
40501;SDS011;29631;49.168;9.848;2023-04-08T11:30:54;4.00;;;3.80;;
40501;SDS011;29631;49.168;9.848;2023-04-08T11:33:23;3.45;;;3.25;;
40501;SDS011;29631;49.168;9.848;2023-04-08T11:35:51;4.13;;;3.83;;
40501;SDS011;29631;49.168;9.848;2023-04-08T11:38:21;3.78;;;3.58;;
40501;SDS011;29631;49.168;9.848;2023-04-08T11:40:55;4.03;;;3.72;;
40501;SDS011;29631;49.168;9.848;2023-04-08T11:43:22;4.32;;;3.90;;
40501;SDS011;29631;49.168;9.848;2023-04-08T11:45:50;3.88;;;3.67;;
40501;SDS011;29631;49.168;9.848;2023-04-08T11:48:16;4.00;;;3.70;;
40501;SDS011;29631;49.168;9.848;2023-04-08T11:50:42;3.97;;;3.67;;
40501;SDS011;29631;49.168;9.848;2023-04-08T11:53:18;3.85;;;3.55;;
40501;SDS011;29631;49.168;9.848;2023-04-08T11:55:49;3.97;;;3.67;;
40501;SDS011;29631;49.168;9.848;2023-04-08T11:58:15;3.80;;;3.60;;
40501;SDS011;29631;49.168;9.848;2023-04-08T12:00:41;4.03;;;3.72;;
40501;SDS011;29631;49.168;9.848;2023-04-08T12:03:08;4.10;;;3.80;;
40501;SDS011;29631;49.168;9.848;2023-04-08T12:05:34;3.90;;;3.60;;
40501;SDS011;29631;49.168;9.848;2023-04-08T12:08:00;3.78;;;3.50;;
40501;SDS011;29631;49.168;9.848;2023-04-08T12:10:26;3.50;;;3.30;;
40501;SDS011;29631;49.168;9.848;2023-04-08T12:12:52;3.78;;;3.50;;
40501;SDS011;29631;49.168;9.848;2023-04-08T12:15:18;3.33;;;3.13;;
40501;SDS011;29631;49.168;9.848;2023-04-08T12:17:44;3.80;;;3.60;;
40501;SDS011;29631;49.168;9.848;2023-04-08T12:20:10;3.90;;;3.65;;
40501;SDS011;29631;49.168;9.848;2023-04-08T12:22:37;3.80;;;3.50;;
40501;SDS011;29631;49.168;9.848;2023-04-08T12:25:03;4.05;;;3.85;;
40501;SDS011;29631;49.168;9.848;2023-04-08T12:27:30;4.38;;;4.10;;
40501;SDS011;29631;49.168;9.848;2023-04-08T12:30:00;4.03;;;3.72;;
40501;SDS011;29631;49.168;9.848;2023-04-08T12:32:27;4.32;;;3.80;;
40501;SDS011;29631;49.168;9.848;2023-04-08T12:34:53;3.88;;;3.40;;
40501;SDS011;29631;49.168;9.848;2023-04-08T12:37:19;3.42;;;3.22;;
40501;SDS011;29631;49.168;9.848;2023-04-08T12:39:45;3.75;;;3.55;;
40501;SDS011;29631;49.168;9.848;2023-04-08T12:42:11;3.33;;;3.13;;
40501;SDS011;29631;49.168;9.848;2023-04-08T12:44:38;3.90;;;3.60;;
40501;SDS011;29631;49.168;9.848;2023-04-08T12:47:04;4.00;;;3.70;;
40501;SDS011;29631;49.168;9.848;2023-04-08T12:49:29;3.38;;;3.17;;
40501;SDS011;29631;49.168;9.848;2023-04-08T12:51:55;3.00;;;2.80;;
40501;SDS011;29631;49.168;9.848;2023-04-08T12:54:21;3.03;;;2.90;;
40501;SDS011;29631;49.168;9.848;2023-04-08T12:56:47;2.83;;;2.63;;
40501;SDS011;29631;49.168;9.848;2023-04-08T12:59:13;2.70;;;2.60;;
40501;SDS011;29631;49.168;9.848;2023-04-08T13:01:39;2.90;;;2.75;;
40501;SDS011;29631;49.168;9.848;2023-04-08T13:04:05;3.13;;;2.92;;
40501;SDS011;29631;49.168;9.848;2023-04-08T13:06:30;3.50;;;2.67;;
40501;SDS011;29631;49.168;9.848;2023-04-08T13:08:56;2.47;;;2.38;;
40501;SDS011;29631;49.168;9.848;2023-04-08T13:11:22;2.72;;;2.63;;
40501;SDS011;29631;49.168;9.848;2023-04-08T13:13:48;3.22;;;2.63;;
40501;SDS011;29631;49.168;9.848;2023-04-08T13:16:14;3.10;;;3.00;;
40501;SDS011;29631;49.168;9.848;2023-04-08T13:18:40;2.78;;;2.67;;
40501;SDS011;29631;49.168;9.848;2023-04-08T13:21:07;3.47;;;3.28;;
40501;SDS011;29631;49.168;9.848;2023-04-08T13:23:33;3.53;;;3.33;;
40501;SDS011;29631;49.168;9.848;2023-04-08T13:25:59;2.90;;;2.80;;
40501;SDS011;29631;49.168;9.848;2023-04-08T13:28:25;3.17;;;2.97;;
40501;SDS011;29631;49.168;9.848;2023-04-08T13:30:51;2.95;;;2.85;;
40501;SDS011;29631;49.168;9.848;2023-04-08T13:33:17;3.50;;;3.30;;
40501;SDS011;29631;49.168;9.848;2023-04-08T13:35:43;3.17;;;2.97;;
40501;SDS011;29631;49.168;9.848;2023-04-08T13:38:09;3.50;;;3.30;;
40501;SDS011;29631;49.168;9.848;2023-04-08T13:40:35;3.47;;;3.28;;
40501;SDS011;29631;49.168;9.848;2023-04-08T13:43:01;3.53;;;3.35;;
40501;SDS011;29631;49.168;9.848;2023-04-08T13:45:27;3.20;;;3.10;;
40501;SDS011;29631;49.168;9.848;2023-04-08T13:47:53;3.13;;;3.03;;
40501;SDS011;29631;49.168;9.848;2023-04-08T13:50:19;3.70;;;3.50;;
40501;SDS011;29631;49.168;9.848;2023-04-08T13:52:45;3.78;;;3.58;;
40501;SDS011;29631;49.168;9.848;2023-04-08T13:55:10;3.88;;;3.58;;
40501;SDS011;29631;49.168;9.848;2023-04-08T13:57:36;3.90;;;3.63;;
40501;SDS011;29631;49.168;9.848;2023-04-08T14:00:02;3.50;;;3.30;;
40501;SDS011;29631;49.168;9.848;2023-04-08T14:02:28;3.58;;;3.38;;
40501;SDS011;29631;49.168;9.848;2023-04-08T14:04:55;3.92;;;3.72;;
40501;SDS011;29631;49.168;9.848;2023-04-08T14:07:21;3.80;;;3.60;;
40501;SDS011;29631;49.168;9.848;2023-04-08T14:09:47;3.60;;;3.40;;
40501;SDS011;29631;49.168;9.848;2023-04-08T14:12:13;3.63;;;3.42;;
40501;SDS011;29631;49.168;9.848;2023-04-08T14:14:38;3.65;;;3.35;;
40501;SDS011;29631;49.168;9.848;2023-04-08T14:17:04;3.60;;;3.30;;
40501;SDS011;29631;49.168;9.848;2023-04-08T14:19:30;3.38;;;3.08;;
40501;SDS011;29631;49.168;9.848;2023-04-08T14:21:56;3.40;;;3.20;;
40501;SDS011;29631;49.168;9.848;2023-04-08T14:24:21;3.65;;;3.45;;
40501;SDS011;29631;49.168;9.848;2023-04-08T14:26:47;3.13;;;2.92;;
40501;SDS011;29631;49.168;9.848;2023-04-08T14:29:14;3.47;;;3.28;;
40501;SDS011;29631;49.168;9.848;2023-04-08T14:31:39;3.30;;;3.10;;
40501;SDS011;29631;49.168;9.848;2023-04-08T14:34:05;3.67;;;3.47;;
40501;SDS011;29631;49.168;9.848;2023-04-08T14:36:31;3.80;;;3.60;;
40501;SDS011;29631;49.168;9.848;2023-04-08T14:38:57;3.40;;;3.10;;
40501;SDS011;29631;49.168;9.848;2023-04-08T14:41:24;3.78;;;3.47;;
40501;SDS011;29631;49.168;9.848;2023-04-08T14:43:51;3.25;;;3.13;;
40501;SDS011;29631;49.168;9.848;2023-04-08T14:46:17;3.83;;;3.60;;
40501;SDS011;29631;49.168;9.848;2023-04-08T14:48:44;3.22;;;3.13;;
40501;SDS011;29631;49.168;9.848;2023-04-08T14:51:09;3.75;;;3.47;;
40501;SDS011;29631;49.168;9.848;2023-04-08T14:53:35;3.50;;;3.30;;
40501;SDS011;29631;49.168;9.848;2023-04-08T14:56:01;3.50;;;3.30;;
40501;SDS011;29631;49.168;9.848;2023-04-08T14:58:28;3.70;;;3.50;;
40501;SDS011;29631;49.168;9.848;2023-04-08T15:00:53;3.60;;;3.40;;
40501;SDS011;29631;49.168;9.848;2023-04-08T15:03:19;3.63;;;3.42;;
40501;SDS011;29631;49.168;9.848;2023-04-08T15:05:46;3.75;;;3.55;;
40501;SDS011;29631;49.168;9.848;2023-04-08T15:08:12;3.33;;;3.13;;
40501;SDS011;29631;49.168;9.848;2023-04-08T15:10:38;3.55;;;3.35;;
40501;SDS011;29631;49.168;9.848;2023-04-08T15:13:04;3.90;;;3.70;;
40501;SDS011;29631;49.168;9.848;2023-04-08T15:15:30;3.58;;;3.38;;